createdAt,value
2023-05-13T00:01:18.837Z,5.5125
2023-05-13T00:04:17.251Z,2.1875
2023-05-13T00:07:17.234Z,2.925
2023-05-13T00:11:16.950Z,5.5375000000000005
2023-05-13T00:14:17.262Z,2.3625
2023-05-13T00:17:17.585Z,1.9749999999999999
2023-05-13T00:21:16.991Z,2.9375
2023-05-13T00:24:17.072Z,6.175000000000001
2023-05-13T00:27:17.183Z,5.0125
2023-05-13T00:31:17.148Z,2.8625
2023-05-13T00:34:18.996Z,3.25
2023-05-13T00:37:17.348Z,2.6125000000000003
2023-05-13T00:41:17.729Z,1.8875
2023-05-13T00:44:17.081Z,9.975000000000001
2023-05-13T00:47:17.124Z,1.3624999999999998
2023-05-13T00:51:17.614Z,2.95
2023-05-13T00:54:17.023Z,2.0125
2023-05-13T00:57:17.002Z,2.7874999999999996
2023-05-13T01:01:24.220Z,4.4125
2023-05-13T01:04:26.529Z,0.9375
2023-05-13T01:07:26.623Z,2.2125000000000004
2023-05-13T01:11:22.826Z,5.5375
2023-05-13T01:14:24.576Z,1.35
2023-05-13T01:17:20.758Z,3.6125000000000003
2023-05-13T01:21:20.155Z,7.1625
2023-05-13T01:24:17.307Z,3.9124999999999996
2023-05-13T01:27:17.217Z,5.55
2023-05-13T01:31:16.528Z,9.8625
2023-05-13T01:34:18.415Z,8.8
2023-05-13T01:37:16.213Z,1.5125000000000002
2023-05-13T01:41:16.196Z,2.6125
2023-05-13T01:44:16.490Z,2.9625000000000004
2023-05-13T01:47:16.878Z,2.1375
2023-05-13T01:51:16.151Z,2.7750000000000004
2023-05-13T01:54:16.635Z,4.9125
2023-05-13T01:57:16.685Z,2.95
2023-05-13T02:01:16.179Z,6.449999999999999
2023-05-13T02:04:16.737Z,2.4625
2023-05-13T02:07:16.268Z,2.3125
2023-05-13T02:11:16.844Z,5.5375000000000005
2023-05-13T02:14:16.926Z,2.4125
2023-05-13T02:17:16.727Z,1.775
2023-05-13T02:21:15.970Z,2.8499999999999996
2023-05-13T02:24:16.304Z,15.2375
2023-05-13T02:27:16.763Z,5.475
2023-05-13T02:31:15.817Z,2.7875
2023-05-13T02:34:15.994Z,2.5875
2023-05-13T02:37:16.021Z,4.699999999999999
2023-05-13T02:41:16.141Z,2.4625000000000004
2023-05-13T02:44:16.249Z,3.1875
2023-05-13T02:47:16.353Z,5.262500000000001
2023-05-13T02:51:16.062Z,4.2375
2023-05-13T02:54:16.322Z,1.7875
2023-05-13T02:57:16.620Z,4.7875
2023-05-13T03:01:15.884Z,5.3375
2023-05-13T03:04:15.968Z,3.8249999999999997
2023-05-13T03:07:16.131Z,4.125
2023-05-13T03:11:16.372Z,4.95
2023-05-13T03:14:16.527Z,4.575
2023-05-13T03:17:16.906Z,3.9124999999999996
2023-05-13T03:21:16.287Z,8.3625
2023-05-13T03:24:16.660Z,2.825
2023-05-13T03:27:16.621Z,2.15
2023-05-13T03:31:16.225Z,5.95
2023-05-13T03:34:16.439Z,4.7124999999999995
2023-05-13T03:37:16.730Z,6.4375
2023-05-13T03:41:17.557Z,3.725
2023-05-13T03:44:16.022Z,2.5374999999999996
2023-05-13T03:47:16.060Z,5.2625
2023-05-13T03:51:16.468Z,3.175
2023-05-13T03:54:16.949Z,5.6875
2023-05-13T03:57:17.355Z,6.5125
2023-05-13T04:01:15.871Z,6.3374999999999995
2023-05-13T04:04:16.181Z,2.925
2023-05-13T04:07:16.390Z,2.2625
2023-05-13T04:11:15.991Z,2.8625
2023-05-13T04:14:16.335Z,3.9624999999999995
2023-05-13T04:17:16.390Z,4.925
2023-05-13T04:21:16.424Z,1.2625000000000002
2023-05-13T04:24:16.924Z,2.075
2023-05-13T04:27:16.623Z,4.5625
2023-05-13T04:31:16.267Z,5.8375
2023-05-13T04:34:16.308Z,3.05
2023-05-13T04:37:16.671Z,8.2
2023-05-13T04:41:16.409Z,4.075
2023-05-13T04:44:16.725Z,5.387499999999999
2023-05-13T04:47:17.608Z,6.575
2023-05-13T04:51:16.352Z,2.8625
2023-05-13T04:54:16.465Z,2.1500000000000004
2023-05-13T04:57:16.543Z,3.2875
2023-05-13T05:01:16.103Z,2.1875
2023-05-13T05:04:16.304Z,5.1625
2023-05-13T05:07:16.521Z,3.2
2023-05-13T05:11:16.000Z,4.175
2023-05-13T05:14:16.283Z,4.574999999999999
2023-05-13T05:17:16.387Z,2.4375
2023-05-13T05:21:18.222Z,3.3
2023-05-13T05:24:16.933Z,5.6499999999999995
2023-05-13T05:27:16.829Z,2.275
2023-05-13T05:31:27.269Z,2.8125
2023-05-13T05:34:26.372Z,2.325
2023-05-13T05:37:26.265Z,4.9875
2023-05-13T05:41:16.486Z,4.0625
2023-05-13T05:44:16.808Z,1.7
2023-05-13T05:47:16.577Z,3.7125000000000004
2023-05-13T05:51:16.327Z,8.8625
2023-05-13T05:54:16.821Z,5.3375
2023-05-13T05:57:17.009Z,2.6624999999999996
2023-05-13T06:01:16.558Z,9.2875
2023-05-13T06:04:17.574Z,2.3625
2023-05-13T06:07:16.904Z,6.0375
2023-05-13T06:11:16.692Z,5.4375
2023-05-13T06:14:17.318Z,5.5375
2023-05-13T06:17:16.891Z,3.2
2023-05-13T06:21:16.327Z,4.9375
2023-05-13T06:24:16.779Z,8.6
2023-05-13T06:27:17.225Z,13.65
2023-05-13T06:31:17.334Z,4.1125
2023-05-13T06:34:17.082Z,2.5250000000000004
2023-05-13T06:37:17.402Z,3.3875
2023-05-13T06:42:22.996Z,2.5625
2023-05-13T06:44:16.291Z,3.0625
2023-05-13T06:47:16.508Z,5.3875
2023-05-13T06:51:16.151Z,5.8999999999999995
2023-05-13T06:54:16.768Z,5.4
2023-05-13T06:57:16.686Z,3.5125
2023-05-13T07:01:16.796Z,4.5875
2023-05-13T07:04:16.877Z,7.0875
2023-05-13T07:07:16.829Z,3.5374999999999996
2023-05-13T07:11:16.418Z,4
2023-05-13T07:14:16.903Z,7.4625
2023-05-13T07:17:16.903Z,7.6125
2023-05-13T07:21:16.668Z,3.8999999999999995
2023-05-13T07:24:17.261Z,9.3625
2023-05-13T07:27:17.213Z,6.4375
2023-05-13T07:31:16.513Z,3.6125000000000003
2023-05-13T07:34:16.843Z,3.5749999999999997
2023-05-13T07:37:17.274Z,4.762499999999999
2023-05-13T07:41:16.018Z,1.425
2023-05-13T07:44:16.412Z,5.699999999999999
2023-05-13T07:47:16.483Z,3.3875
2023-05-13T07:51:16.482Z,2
2023-05-13T07:54:16.415Z,2.4875
2023-05-13T07:57:16.477Z,3.25
2023-05-13T08:01:15.828Z,3.6125000000000003
2023-05-13T08:04:16.186Z,2.3125
2023-05-13T08:07:16.271Z,2.975
2023-05-13T08:11:16.032Z,2.875
2023-05-13T08:14:16.517Z,2.2624999999999997
2023-05-13T08:17:18.389Z,4.175
2023-05-13T08:21:15.707Z,1.75
2023-05-13T08:24:16.216Z,3.575
2023-05-13T08:27:16.261Z,5.075
2023-05-13T08:31:16.062Z,7.675
2023-05-13T08:34:16.951Z,3.9
2023-05-13T08:37:16.495Z,2.4625000000000004
2023-05-13T08:41:16.848Z,4.574999999999999
2023-05-13T08:44:23.737Z,3.8000000000000003
2023-05-13T08:47:25.862Z,8.35
2023-05-13T08:51:16.717Z,6.175
2023-05-13T08:54:20.387Z,6.9375
2023-05-13T08:57:17.020Z,3.9250000000000003
2023-05-13T09:01:17.061Z,7.9125000000000005
2023-05-13T09:04:18.165Z,2.9125
2023-05-13T09:07:16.633Z,4.1125
2023-05-13T09:11:16.921Z,4.85
2023-05-13T09:14:18.892Z,4.05
2023-05-13T09:17:17.880Z,2.1375
2023-05-13T09:21:24.587Z,3.2375
2023-05-13T09:24:19.082Z,4.3375
2023-05-13T09:27:22.505Z,4.9125
2023-05-13T09:31:32.207Z,4.15
2023-05-13T09:34:25.652Z,2.825
2023-05-13T09:37:23.293Z,2.8125
2023-05-13T09:41:19.124Z,2.475
2023-05-13T09:44:16.725Z,2.4124999999999996
2023-05-13T09:47:17.137Z,5.4875
2023-05-13T09:51:16.382Z,4.5625
2023-05-13T09:54:16.959Z,6.375
2023-05-13T09:57:16.758Z,3.875
2023-05-13T10:01:16.577Z,2.525
2023-05-13T10:04:16.524Z,8.075
2023-05-13T10:07:18.062Z,6.525
2023-05-13T10:11:17.690Z,5.199999999999999
2023-05-13T10:14:17.454Z,3.475
2023-05-13T10:17:17.826Z,9.9
2023-05-13T10:21:16.167Z,8.1375
2023-05-13T10:24:16.392Z,5.7125
2023-05-13T10:27:18.339Z,5.9375
2023-05-13T10:31:16.992Z,3.8625000000000003
2023-05-13T10:34:16.937Z,3.325
2023-05-13T10:37:40.852Z,3.6
2023-05-13T10:41:38.073Z,4.4625
2023-05-13T10:44:18.046Z,3.05
2023-05-13T10:47:16.607Z,3.725
2023-05-13T10:51:21.636Z,2.225
2023-05-13T10:54:19.454Z,6.25
2023-05-13T10:57:27.098Z,2.675
2023-05-13T11:01:18.317Z,3.6499999999999995
2023-05-13T11:04:18.867Z,9.375
2023-05-13T11:07:17.194Z,1.7
2023-05-13T11:11:26.696Z,2.8375
2023-05-13T11:14:18.601Z,2.825
2023-05-13T11:17:18.934Z,3.2125000000000004
2023-05-13T11:21:16.688Z,2.9375
2023-05-13T11:24:18.908Z,2.8375000000000004
2023-05-13T11:27:21.600Z,4.324999999999999
2023-05-13T11:31:17.216Z,5.2
2023-05-13T11:34:18.531Z,5.1625
2023-05-13T11:37:17.807Z,6.5375
2023-05-13T11:41:18.035Z,9.100000000000001
2023-05-13T11:44:22.951Z,9.575
2023-05-13T11:47:25.210Z,6.675000000000001
2023-05-13T11:51:17.548Z,7.975
2023-05-13T11:54:17.154Z,7.550000000000001
2023-05-13T11:57:21.879Z,5.6875
2023-05-13T12:01:16.496Z,10.25
2023-05-13T12:04:17.241Z,6.3875
2023-05-13T12:07:20.020Z,6.575
2023-05-13T12:11:16.611Z,5.125
2023-05-13T12:14:17.007Z,8.600000000000001
2023-05-13T12:17:17.454Z,9.1
2023-05-13T12:21:20.690Z,2.775
2023-05-13T12:24:18.413Z,5.0875
2023-05-13T12:27:17.115Z,3.6374999999999997
2023-05-13T12:31:17.141Z,5.8374999999999995
2023-05-13T12:34:29.998Z,4.262499999999999
2023-05-13T12:37:17.584Z,3.9624999999999995
2023-05-13T12:41:17.347Z,7.999999999999999
2023-05-13T12:44:16.299Z,7.300000000000001
2023-05-13T12:47:20.016Z,6.9
2023-05-13T12:51:16.269Z,4.1625
2023-05-13T12:54:17.003Z,6.487500000000001
2023-05-13T12:57:17.793Z,7.7
2023-05-13T13:01:16.948Z,7.0375
2023-05-13T13:04:17.173Z,3.625
2023-05-13T13:07:16.868Z,5.1375
2023-05-13T13:11:19.073Z,5.725
2023-05-13T13:14:16.313Z,10.049999999999999
2023-05-13T13:17:16.395Z,5.2875000000000005
2023-05-13T13:21:16.139Z,10.1375
2023-05-13T13:24:16.537Z,4.425
2023-05-13T13:27:18.071Z,3.15
2023-05-13T13:31:22.104Z,5.1875
2023-05-13T13:34:21.895Z,3.425
2023-05-13T13:37:22.794Z,5.0375
2023-05-13T13:41:17.963Z,4.6125
2023-05-13T13:44:18.468Z,4.2625
2023-05-13T13:47:18.817Z,7.5875
2023-05-13T13:51:15.961Z,5.475
2023-05-13T13:54:17.440Z,6.7875
2023-05-13T13:57:16.734Z,5.0625
2023-05-13T14:01:16.426Z,5.4
2023-05-13T14:04:18.276Z,4.9375
2023-05-13T14:07:17.008Z,5.4125
2023-05-13T14:11:16.862Z,4.125
2023-05-13T14:14:16.224Z,4.9
2023-05-13T14:17:16.321Z,3.725
2023-05-13T14:21:16.702Z,6.300000000000001
2023-05-13T14:24:16.567Z,2.5125
2023-05-13T14:27:16.731Z,4.9
2023-05-13T14:31:16.350Z,6.3
2023-05-13T14:34:18.341Z,4.875
2023-05-13T14:37:16.914Z,8.3875
2023-05-13T14:41:20.049Z,7.7375
2023-05-13T14:44:17.092Z,4.825
2023-05-13T14:47:17.108Z,7.512499999999999
2023-05-13T14:51:16.600Z,6.525
2023-05-13T14:54:17.949Z,9.537500000000001
2023-05-13T14:57:16.992Z,12.5375
2023-05-13T15:01:17.526Z,82.3125
2023-05-13T15:04:17.434Z,71.9
2023-05-13T15:07:17.420Z,28.65
2023-05-13T15:11:17.010Z,11.850000000000001
2023-05-13T15:14:18.236Z,23.637500000000003
2023-05-13T15:17:17.609Z,28.3
2023-05-13T15:21:16.545Z,9.0375
2023-05-13T15:24:16.652Z,4.6125
2023-05-13T15:27:17.343Z,5.175
2023-05-13T15:31:16.339Z,6.999999999999999
2023-05-13T15:34:16.499Z,12.0125
2023-05-13T15:37:16.877Z,14.212499999999999
2023-05-13T15:41:16.388Z,38.7125
2023-05-13T15:44:16.766Z,24.662499999999998
2023-05-13T15:47:16.951Z,22.087500000000002
2023-05-13T15:51:16.144Z,46.25
2023-05-13T15:54:16.433Z,72.3375
2023-05-13T15:57:18.340Z,30.487499999999997
2023-05-13T16:01:16.442Z,23.537499999999998
2023-05-13T16:04:16.733Z,22.799999999999997
2023-05-13T16:07:16.611Z,9.775
2023-05-13T16:11:16.604Z,8.4625
2023-05-13T16:14:18.846Z,7.125
2023-05-13T16:17:16.916Z,6.9
2023-05-13T16:21:16.265Z,4.9625
2023-05-13T16:24:16.588Z,4.8500000000000005
2023-05-13T16:27:16.488Z,6.2125
2023-05-13T16:31:16.608Z,7.25
2023-05-13T16:34:16.867Z,6.325
2023-05-13T16:37:17.094Z,5.1875
2023-05-13T16:41:15.766Z,8.0625
2023-05-13T16:44:16.130Z,3.075
2023-05-13T16:47:16.240Z,5.824999999999999
2023-05-13T16:51:16.333Z,8.925
2023-05-13T16:54:16.619Z,7.1625
2023-05-13T16:57:18.400Z,12.475000000000001
2023-05-13T17:01:16.634Z,29.800000000000004
2023-05-13T17:04:17.191Z,42.824999999999996
2023-05-13T17:07:16.814Z,16.45
2023-05-13T17:11:16.965Z,10.1875
2023-05-13T17:14:16.416Z,3.0250000000000004
2023-05-13T17:17:16.537Z,5
2023-05-13T17:21:16.901Z,5.775
2023-05-13T17:24:17.786Z,5.2125
2023-05-13T17:27:16.950Z,7.25
2023-05-13T17:31:16.254Z,7.0375
2023-05-13T17:34:17.334Z,5.3375
2023-05-13T17:37:17.434Z,1.9874999999999998
2023-05-13T17:41:18.708Z,2.7875
2023-05-13T17:44:19.592Z,5.5375000000000005
2023-05-13T17:47:18.837Z,5.362500000000001
2023-05-13T17:51:16.793Z,3.6625
2023-05-13T17:54:18.714Z,2.8874999999999997
2023-05-13T17:57:17.894Z,9.1125
2023-05-13T18:01:18.407Z,2.9625000000000004
2023-05-13T18:04:18.262Z,4.375
2023-05-13T18:07:19.395Z,6.0875
2023-05-13T18:11:18.992Z,3.9000000000000004
2023-05-13T18:14:18.524Z,3.5249999999999995
2023-05-13T18:17:17.577Z,4.475
2023-05-13T18:21:16.391Z,5.2875000000000005
2023-05-13T18:24:16.444Z,1.875
2023-05-13T18:27:16.743Z,7.925000000000001
2023-05-13T18:31:16.471Z,4.425
2023-05-13T18:34:16.646Z,4.2125
2023-05-13T18:37:16.486Z,2.3375
2023-05-13T18:41:16.323Z,1.875
2023-05-13T18:44:16.684Z,2.7375
2023-05-13T18:47:16.662Z,9.825
2023-05-13T18:51:17.097Z,4.125
2023-05-13T18:54:16.924Z,4.55
2023-05-13T18:57:19.172Z,2.9875
2023-05-13T19:01:18.230Z,3.325
2023-05-13T19:04:17.457Z,5.6
2023-05-13T19:07:17.235Z,2.3125
2023-05-13T19:11:16.702Z,5.55
2023-05-13T19:14:18.859Z,3.4124999999999996
2023-05-13T19:17:17.674Z,2.0625
2023-05-13T19:21:17.382Z,5.3125
2023-05-13T19:24:17.016Z,2.5374999999999996
2023-05-13T19:27:19.174Z,2.9625
2023-05-13T19:31:16.284Z,3.7625
2023-05-13T19:34:16.740Z,7.6625000000000005
2023-05-13T19:37:16.813Z,2.7375000000000003
2023-05-13T19:41:18.056Z,2.3875
2023-05-13T19:44:17.709Z,4.675000000000001
2023-05-13T19:47:16.512Z,3.875
2023-05-13T19:51:16.571Z,3.6374999999999997
2023-05-13T19:54:19.145Z,2.4625
2023-05-13T19:57:17.536Z,4.4125
2023-05-13T20:01:19.807Z,4.3625
2023-05-13T20:04:17.172Z,3.2625
2023-05-13T20:07:17.779Z,3.8125
2023-05-13T20:11:17.180Z,3.0124999999999997
2023-05-13T20:14:21.691Z,4.1125
2023-05-13T20:17:19.196Z,8.375
2023-05-13T20:21:17.071Z,3.8125
2023-05-13T20:24:19.805Z,4.3
2023-05-13T20:27:18.202Z,11.9375
2023-05-13T20:31:19.475Z,4.199999999999999
2023-05-13T20:34:16.888Z,2.8625
2023-05-13T20:37:17.156Z,2.7625
2023-05-13T20:41:16.668Z,4.875
2023-05-13T20:44:18.300Z,11.125
2023-05-13T20:47:17.526Z,4.075
2023-05-13T20:51:17.229Z,4.8125
2023-05-13T20:54:17.055Z,4.7
2023-05-13T20:57:17.131Z,2.675
2023-05-13T21:01:16.191Z,4.6375
2023-05-13T21:04:16.539Z,3.25
2023-05-13T21:07:16.486Z,6.5875
2023-05-13T21:11:16.832Z,4.025
2023-05-13T21:14:16.798Z,5.2125
2023-05-13T21:17:21.566Z,4.5875
2023-05-13T21:21:16.364Z,4.4125
2023-05-13T21:24:17.833Z,3.6625
2023-05-13T21:27:16.550Z,3.6125
2023-05-13T21:31:16.864Z,5.3999999999999995
2023-05-13T21:34:17.224Z,3.7375
2023-05-13T21:37:17.078Z,3.7249999999999996
2023-05-13T21:41:20.039Z,4.425000000000001
2023-05-13T21:44:17.173Z,7.9375
2023-05-13T21:47:17.271Z,5.5
2023-05-13T21:51:16.838Z,3.875
2023-05-13T21:54:17.735Z,2.6624999999999996
2023-05-13T21:57:16.984Z,4.3625
2023-05-13T22:01:16.319Z,3.3625
2023-05-13T22:04:16.531Z,2.35
2023-05-13T22:07:16.489Z,3.1125
2023-05-13T22:11:16.660Z,4.5875
2023-05-13T22:14:17.124Z,2.925
2023-05-13T22:17:16.968Z,4.4625
2023-05-13T22:21:16.106Z,2.7
2023-05-13T22:24:16.427Z,3.625
2023-05-13T22:27:16.372Z,3.8625
2023-05-13T22:31:16.744Z,3.1375
2023-05-13T22:34:16.746Z,3.2375
2023-05-13T22:37:17.061Z,3.5875
2023-05-13T22:41:15.962Z,4.9
2023-05-13T22:44:16.326Z,2.5875
2023-05-13T22:47:16.325Z,4.4
2023-05-13T22:51:16.845Z,5.4
2023-05-13T22:54:17.194Z,2.6375
2023-05-13T22:57:17.296Z,2.375
2023-05-13T23:01:16.557Z,4.5375
2023-05-13T23:04:16.580Z,2.6624999999999996
2023-05-13T23:07:16.647Z,2.8875
2023-05-13T23:11:16.333Z,2.025
2023-05-13T23:14:16.672Z,4.324999999999999
2023-05-13T23:17:16.687Z,3.075
2023-05-13T23:21:16.062Z,2.3
2023-05-13T23:24:16.569Z,3.45
2023-05-13T23:27:16.244Z,6.925
2023-05-13T23:31:16.947Z,4.512499999999999
2023-05-13T23:34:16.887Z,3.3625
2023-05-13T23:37:18.734Z,2.2625
2023-05-13T23:41:16.255Z,5.1875
2023-05-13T23:44:16.515Z,3.8125
2023-05-13T23:47:16.842Z,4.9125
2023-05-13T23:51:15.948Z,5.4
2023-05-13T23:54:16.863Z,4.125
2023-05-13T23:57:16.434Z,6.5625
